Time;durP1;ratioP1;P1;durP2;ratioP2;P2;SDS_P1;SDS_P2;PMS_P1;PMS_P2;Temp;Humidity;BMP_temperature;BMP_pressure;BME280_temperature;BME280_humidity;BME280_pressure;Samples;Min_cycle;Max_cycle;Signal;HPM_P1;HPM_P2
2023/09/25 00:00:52;;;;;;;8.80;7.05;;;;;;;;;;2569781;23;20012;-93
2023/09/25 00:01:53;;;;;;;8.98;6.25;;;;;;;;;;2582569;23;19997;-92
2023/09/25 00:02:53;;;;;;;7.60;6.53;;;;;;;;;;2569654;23;20055;-93
2023/09/25 00:03:54;;;;;;;9.60;6.65;;;;;;;;;;2569721;23;20406;-93
2023/09/25 00:04:54;;;;;;;11.73;6.80;;;;;;;;;;2569613;23;19995;-91
2023/09/25 00:05:54;;;;;;;7.45;6.40;;;;;;;;;;2582191;23;20327;-92
2023/09/25 00:06:55;;;;;;;8.82;5.32;;;;;;;;;;2569592;23;20058;-92
2023/09/25 00:07:56;;;;;;;7.60;6.90;;;;;;;;;;2569402;23;20020;-92
2023/09/25 00:08:56;;;;;;;8.48;7.03;;;;;;;;;;2569574;23;20039;-92
2023/09/25 00:09:56;;;;;;;7.00;6.28;;;;;;;;;;2569696;23;20083;-92
2023/09/25 00:10:57;;;;;;;9.10;6.18;;;;;;;;;;2585587;23;19998;-92
2023/09/25 00:11:57;;;;;;;11.38;6.50;;;;;;;;;;2586299;22;20012;-92
2023/09/25 00:12:58;;;;;;;8.63;6.63;;;;;;;;;;2572421;23;19997;-93
2023/09/25 00:13:59;;;;;;;9.15;6.65;;;;;;;;;;2582046;23;19988;-92
2023/09/25 00:14:59;;;;;;;7.00;6.30;;;;;;;;;;2582339;23;20357;-92
2023/09/25 00:16:00;;;;;;;7.10;6.43;;;;;;;;;;2569584;23;20059;-92
2023/09/25 00:17:00;;;;;;;7.10;6.45;;;;;;;;;;2569627;23;19993;-92
2023/09/25 00:18:01;;;;;;;7.63;6.50;;;;;;;;;;2569597;23;20026;-92
2023/09/25 00:19:01;;;;;;;7.82;6.20;;;;;;;;;;2569943;23;20005;-92
2023/09/25 00:20:04;;;;;;;7.63;6.82;;;;;;;;;;2583569;23;20011;-91
2023/09/25 00:21:04;;;;;;;7.15;4.90;;;;;;;;;;2582861;23;20012;-92
2023/09/25 00:22:04;;;;;;;7.20;6.50;;;;;;;;;;2584482;23;20011;-92
2023/09/25 00:23:05;;;;;;;7.03;6.35;;;;;;;;;;2582084;23;20086;-92
2023/09/25 00:24:06;;;;;;;6.75;5.80;;;;;;;;;;2582176;23;20414;-93
2023/09/25 00:25:07;;;;;;;9.25;5.78;;;;;;;;;;2582183;23;20003;-92
2023/09/25 00:26:08;;;;;;;7.25;6.32;;;;;;;;;;2584712;23;20450;-92
2023/09/25 00:27:09;;;;;;;6.80;5.90;;;;;;;;;;2581864;23;20118;-92
2023/09/25 00:28:09;;;;;;;6.45;5.82;;;;;;;;;;2569451;23;20032;-92
2023/09/25 00:29:11;;;;;;;6.65;5.85;;;;;;;;;;2584703;23;20414;-92
2023/09/25 00:30:12;;;;;;;7.25;5.88;;;;;;;;;;2581989;23;20458;-92
2023/09/25 00:31:12;;;;;;;6.88;6.28;;;;;;;;;;2569631;23;20004;-92
2023/09/25 00:32:12;;;;;;;7.78;6.63;;;;;;;;;;2582076;23;20030;-93
2023/09/25 00:33:13;;;;;;;7.57;6.78;;;;;;;;;;2582652;23;20016;-92
2023/09/25 00:34:14;;;;;;;6.65;6.05;;;;;;;;;;2569676;23;20020;-92
2023/09/25 00:35:14;;;;;;;7.63;6.35;;;;;;;;;;2584304;23;20000;-92
2023/09/25 00:36:15;;;;;;;9.07;5.93;;;;;;;;;;2582375;23;20427;-92
2023/09/25 00:37:15;;;;;;;7.60;6.80;;;;;;;;;;2582063;23;20092;-93
2023/09/25 00:38:16;;;;;;;8.55;6.63;;;;;;;;;;2582118;23;20354;-92
2023/09/25 00:39:16;;;;;;;6.47;5.85;;;;;;;;;;2575967;23;20097;-92
2023/09/25 00:40:21;;;;;;;7.18;5.63;;;;;;;;;;2582054;23;20008;-93
2023/09/25 00:41:21;;;;;;;7.20;6.47;;;;;;;;;;2570506;23;20035;-92
2023/09/25 00:42:22;;;;;;;7.90;5.70;;;;;;;;;;2583793;23;20038;-92
2023/09/25 00:43:22;;;;;;;8.27;6.45;;;;;;;;;;2582167;23;20008;-91
2023/09/25 00:44:23;;;;;;;8.15;5.90;;;;;;;;;;2583656;23;20058;-92
2023/09/25 00:45:23;;;;;;;6.75;6.05;;;;;;;;;;2581969;23;20062;-92
2023/09/25 00:46:24;;;;;;;7.32;6.15;;;;;;;;;;2569657;23;20115;-91
2023/09/25 00:47:25;;;;;;;6.50;5.85;;;;;;;;;;2582030;23;20008;-91
2023/09/25 00:48:28;;;;;;;7.80;5.70;;;;;;;;;;2569636;23;20015;-92
2023/09/25 00:49:30;;;;;;;7.65;6.15;;;;;;;;;;2569991;23;20383;-92
2023/09/25 00:50:32;;;;;;;7.63;6.15;;;;;;;;;;2569707;23;20009;-91
2023/09/25 00:51:33;;;;;;;10.25;6.20;;;;;;;;;;2569774;23;20016;-91
2023/09/25 00:52:35;;;;;;;8.48;6.90;;;;;;;;;;2569633;23;20054;-92
2023/09/25 00:53:36;;;;;;;7.63;6.25;;;;;;;;;;2581739;23;20426;-92
2023/09/25 00:54:36;;;;;;;7.85;6.82;;;;;;;;;;2582712;23;20089;-93
2023/09/25 00:55:37;;;;;;;8.75;6.47;;;;;;;;;;2586038;23;20012;-92
2023/09/25 00:56:38;;;;;;;8.32;6.32;;;;;;;;;;2578239;23;20574;-92
2023/09/25 00:57:38;;;;;;;8.75;6.63;;;;;;;;;;2579017;23;20013;-93
2023/09/25 00:58:39;;;;;;;7.30;6.00;;;;;;;;;;2579365;23;20466;-92
2023/09/25 00:59:40;;;;;;;10.02;7.30;;;;;;;;;;2578711;23;20013;-92
2023/09/25 01:00:42;;;;;;;8.45;6.20;;;;;;;;;;2569475;23;20516;-92
2023/09/25 01:01:43;;;;;;;7.22;6.53;;;;;;;;;;2570418;23;20013;-92
2023/09/25 01:02:55;;;;;;;8.02;7.22;;;;;;;;;;2223013;23;10001576;-92
2023/09/25 01:03:56;;;;;;;7.10;5.85;;;;;;;;;;2151627;23;10000550;-92
2023/09/25 01:05:02;;;;;;;8.73;6.80;;;;;;;;;;2585287;23;19992;-92
2023/09/25 01:06:05;;;;;;;8.35;6.20;;;;;;;;;;2594714;22;20042;-93
2023/09/25 01:07:06;;;;;;;7.50;6.63;;;;;;;;;;2582203;23;20008;-92
2023/09/25 01:08:07;;;;;;;8.75;7.35;;;;;;;;;;2584647;23;20014;-93
2023/09/25 01:09:09;;;;;;;7.95;6.75;;;;;;;;;;2582169;23;20008;-93
2023/09/25 01:10:16;;;;;;;9.00;6.97;;;;;;;;;;2569756;23;20008;-92
2023/09/25 01:11:16;;;;;;;7.13;6.00;;;;;;;;;;2584012;23;20461;-92
2023/09/25 01:12:17;;;;;;;9.02;7.00;;;;;;;;;;2584882;22;20028;-92
2023/09/25 01:13:18;;;;;;;7.68;6.57;;;;;;;;;;2142324;23;10453920;-92
2023/09/25 01:14:18;;;;;;;8.85;6.15;;;;;;;;;;2591223;23;20307;-92
2023/09/25 01:15:19;;;;;;;9.02;7.00;;;;;;;;;;2606222;22;20023;-91
2023/09/25 01:16:21;;;;;;;9.57;6.70;;;;;;;;;;2594627;22;20030;-92
2023/09/25 01:17:22;;;;;;;6.90;5.68;;;;;;;;;;2588828;22;20012;-90
2023/09/25 01:18:23;;;;;;;8.10;7.05;;;;;;;;;;2572043;23;20029;-90
2023/09/25 01:19:23;;;;;;;9.05;7.20;;;;;;;;;;2570521;23;20063;-90
2023/09/25 01:20:24;;;;;;;6.20;5.53;;;;;;;;;;2127966;23;10352826;-90
2023/09/25 01:21:25;;;;;;;8.68;7.25;;;;;;;;;;2583908;23;20012;-90
2023/09/25 01:22:26;;;;;;;8.85;6.63;;;;;;;;;;2571922;23;20060;-90
2023/09/25 01:23:26;;;;;;;8.98;7.00;;;;;;;;;;2571323;23;20043;-92
2023/09/25 01:24:27;;;;;;;10.05;7.45;;;;;;;;;;2582140;23;20086;-92
2023/09/25 01:25:27;;;;;;;6.88;6.28;;;;;;;;;;2133415;23;10406432;-92
2023/09/25 01:26:28;;;;;;;7.47;6.25;;;;;;;;;;2583129;23;20465;-91
2023/09/25 01:27:29;;;;;;;9.68;7.28;;;;;;;;;;2582010;23;20019;-92
2023/09/25 01:28:29;;;;;;;9.48;6.95;;;;;;;;;;2569579;23;20039;-91
2023/09/25 01:29:30;;;;;;;9.77;6.32;;;;;;;;;;2583616;23;20457;-93
2023/09/25 01:30:31;;;;;;;9.50;8.10;;;;;;;;;;2588922;23;20000;-92
2023/09/25 01:31:31;;;;;;;9.93;7.68;;;;;;;;;;2577530;23;20009;-92
2023/09/25 01:32:32;;;;;;;7.35;6.38;;;;;;;;;;2578309;23;20016;-92
2023/09/25 01:33:33;;;;;;;9.20;6.13;;;;;;;;;;2578864;23;20022;-91
2023/09/25 01:34:34;;;;;;;8.20;7.40;;;;;;;;;;2594599;22;20016;-92
2023/09/25 01:35:34;;;;;;;8.13;7.25;;;;;;;;;;2581993;23;20001;-92
2023/09/25 01:36:35;;;;;;;9.25;6.82;;;;;;;;;;2582139;23;20012;-91
2023/09/25 01:37:35;;;;;;;7.60;6.90;;;;;;;;;;2594473;22;19996;-92
2023/09/25 01:38:35;;;;;;;8.13;5.68;;;;;;;;;;2589001;22;20406;-93
2023/09/25 01:39:36;;;;;;;9.55;7.30;;;;;;;;;;2583238;23;20012;-93
2023/09/25 01:40:36;;;;;;;7.75;7.05;;;;;;;;;;2569579;23;20144;-92
2023/09/25 01:41:37;;;;;;;9.82;7.35;;;;;;;;;;2582924;23;20361;-92
2023/09/25 01:42:37;;;;;;;8.38;7.13;;;;;;;;;;2581964;23;20012;-92
2023/09/25 01:43:37;;;;;;;9.10;6.95;;;;;;;;;;2569470;23;20067;-91
2023/09/25 01:44:38;;;;;;;10.45;6.97;;;;;;;;;;2569574;23;20012;-93
2023/09/25 01:45:38;;;;;;;8.05;7.25;;;;;;;;;;2582303;23;20059;-92
2023/09/25 01:46:41;;;;;;;8.05;6.97;;;;;;;;;;2583250;22;20004;-92
2023/09/25 01:47:48;;;;;;;9.57;7.43;;;;;;;;;;2581338;23;20040;-92
2023/09/25 01:48:49;;;;;;;11.07;7.22;;;;;;;;;;2574443;23;20079;-92
2023/09/25 01:49:49;;;;;;;8.05;7.22;;;;;;;;;;2581948;23;20330;-92
2023/09/25 01:50:50;;;;;;;8.98;7.50;;;;;;;;;;2581890;23;20089;-92
2023/09/25 01:51:50;;;;;;;9.60;7.30;;;;;;;;;;2562050;23;20001;-92
2023/09/25 01:52:53;;;;;;;8.55;7.65;;;;;;;;;;2569197;23;20115;-92
2023/09/25 01:53:54;;;;;;;7.85;7.10;;;;;;;;;;2569585;23;20083;-91
2023/09/25 01:54:54;;;;;;;7.78;6.93;;;;;;;;;;2569262;23;20000;-92
2023/09/25 01:55:54;;;;;;;7.72;6.50;;;;;;;;;;2569100;23;20047;-92
2023/09/25 01:56:58;;;;;;;8.27;7.13;;;;;;;;;;2585325;23;19992;-91
2023/09/25 01:57:58;;;;;;;9.73;7.95;;;;;;;;;;2581773;23;20007;-93
2023/09/25 01:58:58;;;;;;;10.27;7.10;;;;;;;;;;2569262;23;20459;-91
2023/09/25 01:59:59;;;;;;;8.55;6.72;;;;;;;;;;2569101;23;20005;-92
2023/09/25 02:00:59;;;;;;;9.65;7.80;;;;;;;;;;2581796;23;20000;-92
2023/09/25 02:01:59;;;;;;;7.82;7.03;;;;;;;;;;2581819;23;20006;-91
2023/09/25 02:03:00;;;;;;;;;;;;;;;;;;2127776;23;10304518;-91
2023/09/25 02:04:00;;;;;;;6.40;5.73;;;;;;;;;;2570579;23;19968;-91
2023/09/25 02:05:01;;;;;;;8.65;7.70;;;;;;;;;;2583009;23;20007;-91
2023/09/25 02:06:03;;;;;;;9.70;7.97;;;;;;;;;;2585789;23;19996;-92
2023/09/25 02:07:03;;;;;;;7.50;6.75;;;;;;;;;;2584644;23;20350;-93
2023/09/25 02:08:04;;;;;;;8.90;7.18;;;;;;;;;;2569273;23;20016;-93
2023/09/25 02:09:04;;;;;;;8.82;7.80;;;;;;;;;;2569222;23;20005;-92
2023/09/25 02:10:06;;;;;;;13.25;7.47;;;;;;;;;;2581889;23;20357;-93
2023/09/25 02:11:07;;;;;;;9.75;8.32;;;;;;;;;;2569282;23;20001;-93
2023/09/25 02:12:07;;;;;;;9.73;7.32;;;;;;;;;;2581902;23;20035;-93
2023/09/25 02:13:08;;;;;;;9.57;8.32;;;;;;;;;;2569220;23;20004;-94
2023/09/25 02:14:08;;;;;;;8.07;7.07;;;;;;;;;;2569351;23;20087;-93
2023/09/25 02:15:09;;;;;;;9.77;8.05;;;;;;;;;;2569361;23;20004;-93
2023/09/25 02:16:09;;;;;;;9.77;7.65;;;;;;;;;;2569350;23;20012;-93
2023/09/25 02:17:10;;;;;;;9.18;6.70;;;;;;;;;;2584429;23;20020;-93
2023/09/25 02:18:10;;;;;;;8.73;6.93;;;;;;;;;;2581702;23;20102;-92
2023/09/25 02:19:11;;;;;;;9.18;8.27;;;;;;;;;;2569238;23;20008;-93
2023/09/25 02:20:16;;;;;;;8.60;7.70;;;;;;;;;;2569288;23;20020;-93
2023/09/25 02:21:16;;;;;;;9.27;7.43;;;;;;;;;;2581781;23;20004;-92
2023/09/25 02:22:17;;;;;;;10.07;7.60;;;;;;;;;;2569315;23;20032;-92
2023/09/25 02:23:19;;;;;;;8.10;7.18;;;;;;;;;;2569357;23;20008;-93
2023/09/25 02:24:19;;;;;;;9.40;8.35;;;;;;;;;;2569329;23;20032;-92
2023/09/25 02:25:20;;;;;;;12.43;7.05;;;;;;;;;;2581808;23;20004;-93
2023/09/25 02:26:20;;;;;;;9.32;8.43;;;;;;;;;;2569434;23;20359;-92
2023/09/25 02:27:20;;;;;;;11.38;8.73;;;;;;;;;;2569268;23;20001;-93
2023/09/25 02:28:21;;;;;;;12.88;9.50;;;;;;;;;;2583528;23;20067;-92
2023/09/25 02:29:22;;;;;;;12.98;10.20;;;;;;;;;;2581836;23;20000;-92
2023/09/25 02:30:22;;;;;;;14.05;10.02;;;;;;;;;;2581829;23;20044;-93
2023/09/25 02:31:23;;;;;;;16.13;13.30;;;;;;;;;;2581732;23;20004;-92
2023/09/25 02:32:23;;;;;;;15.02;11.90;;;;;;;;;;2569275;23;20059;-93
2023/09/25 02:33:23;;;;;;;15.82;13.60;;;;;;;;;;2569128;23;20035;-92
2023/09/25 02:34:24;;;;;;;17.25;12.50;;;;;;;;;;2581840;23;20008;-92
2023/09/25 02:35:25;;;;;;;18.60;13.38;;;;;;;;;;2569334;23;20074;-93
2023/09/25 02:36:25;;;;;;;17.65;11.60;;;;;;;;;;2583009;23;20007;-93
2023/09/25 02:37:26;;;;;;;13.45;11.45;;;;;;;;;;2581698;23;20035;-91
2023/09/25 02:38:27;;;;;;;15.18;12.27;;;;;;;;;;2569090;23;20005;-92
2023/09/25 02:39:27;;;;;;;16.90;11.25;;;;;;;;;;2569178;23;20070;-92
2023/09/25 02:40:28;;;;;;;14.95;11.93;;;;;;;;;;2583158;23;20004;-92
2023/09/25 02:41:28;;;;;;;15.63;10.75;;;;;;;;;;2581644;23;20493;-93
2023/09/25 02:42:29;;;;;;;16.50;11.75;;;;;;;;;;2569273;23;20091;-92
2023/09/25 02:43:30;;;;;;;15.65;11.95;;;;;;;;;;2569158;23;20008;-92
2023/09/25 02:44:30;;;;;;;16.65;11.38;;;;;;;;;;2582186;23;20008;-92
2023/09/25 02:45:31;;;;;;;12.88;9.95;;;;;;;;;;2582259;23;20004;-92
2023/09/25 02:46:32;;;;;;;13.75;11.18;;;;;;;;;;2582631;23;20004;-93
2023/09/25 02:47:32;;;;;;;13.68;11.18;;;;;;;;;;2569461;23;20095;-93
2023/09/25 02:48:33;;;;;;;13.25;10.05;;;;;;;;;;2569090;23;20418;-93
2023/09/25 02:49:34;;;;;;;11.20;9.93;;;;;;;;;;2581749;23;20008;-92
2023/09/25 02:50:35;;;;;;;12.30;9.32;;;;;;;;;;2569313;23;20087;-93
2023/09/25 02:51:35;;;;;;;14.85;10.02;;;;;;;;;;2569159;23;20008;-93
2023/09/25 02:52:36;;;;;;;10.02;7.97;;;;;;;;;;2568975;23;20020;-92
2023/09/25 02:53:36;;;;;;;10.00;9.02;;;;;;;;;;2581956;23;20450;-93
2023/09/25 02:54:37;;;;;;;10.98;8.25;;;;;;;;;;2569314;23;20370;-92
2023/09/25 02:55:37;;;;;;;8.73;7.68;;;;;;;;;;2569199;23;20000;-93
2023/09/25 02:56:38;;;;;;;8.45;7.25;;;;;;;;;;2569185;23;20473;-92
2023/09/25 02:57:38;;;;;;;11.48;7.78;;;;;;;;;;2569255;23;20087;-92
2023/09/25 02:58:39;;;;;;;9.63;8.02;;;;;;;;;;2582307;23;20058;-92
2023/09/25 02:59:39;;;;;;;10.90;6.68;;;;;;;;;;2581921;23;19999;-92
2023/09/25 03:00:40;;;;;;;8.43;7.50;;;;;;;;;;2569020;23;20036;-92
2023/09/25 03:01:40;;;;;;;8.23;7.00;;;;;;;;;;2569331;23;20446;-93
2023/09/25 03:02:42;;;;;;;9.55;7.63;;;;;;;;;;2569276;23;20059;-92
2023/09/25 03:03:43;;;;;;;10.10;6.15;;;;;;;;;;2569654;23;20005;-92
2023/09/25 03:04:43;;;;;;;9.27;8.00;;;;;;;;;;2569500;23;20421;-93
2023/09/25 03:05:44;;;;;;;8.07;7.28;;;;;;;;;;2569400;23;20001;-93
2023/09/25 03:06:44;;;;;;;8.70;7.80;;;;;;;;;;2569155;23;20010;-93
2023/09/25 03:07:45;;;;;;;7.97;6.25;;;;;;;;;;2569186;23;19996;-94
2023/09/25 03:08:45;;;;;;;9.45;8.43;;;;;;;;;;2569303;23;19996;-94
2023/09/25 03:09:46;;;;;;;7.97;6.78;;;;;;;;;;2569273;23;20067;-93
2023/09/25 03:10:46;;;;;;;8.85;7.95;;;;;;;;;;2581742;23;20007;-92
2023/09/25 03:11:47;;;;;;;9.10;8.20;;;;;;;;;;2581793;23;19996;-93
2023/09/25 03:12:47;;;;;;;10.45;7.25;;;;;;;;;;2569178;23;20001;-93
2023/09/25 03:13:49;;;;;;;8.45;7.55;;;;;;;;;;2569051;23;20370;-93
2023/09/25 03:14:49;;;;;;;10.75;8.25;;;;;;;;;;2569444;23;20001;-92
2023/09/25 03:15:50;;;;;;;10.07;7.95;;;;;;;;;;2581858;23;20004;-93
2023/09/25 03:16:50;;;;;;;8.32;7.20;;;;;;;;;;2569143;23;20016;-93
2023/09/25 03:17:50;;;;;;;8.95;7.60;;;;;;;;;;2569121;23;20032;-93
2023/09/25 03:18:51;;;;;;;9.25;7.45;;;;;;;;;;2581509;23;20000;-93
2023/09/25 03:19:52;;;;;;;11.52;8.77;;;;;;;;;;2581690;23;20004;-93
2023/09/25 03:20:53;;;;;;;16.42;13.63;;;;;;;;;;2569132;23;20358;-93
2023/09/25 03:21:53;;;;;;;20.02;14.95;;;;;;;;;;2585351;23;20075;-93
2023/09/25 03:22:57;;;;;;;20.15;18.05;;;;;;;;;;2582572;23;19996;-92
2023/09/25 03:23:57;;;;;;;14.70;12.68;;;;;;;;;;2570467;23;20451;-94
2023/09/25 03:24:57;;;;;;;14.60;13.10;;;;;;;;;;2569873;23;20079;-93
2023/09/25 03:25:58;;;;;;;13.88;11.77;;;;;;;;;;2569803;23;20013;-92
2023/09/25 03:26:58;;;;;;;14.40;11.90;;;;;;;;;;2585950;23;20426;-93
2023/09/25 03:27:59;;;;;;;15.18;11.35;;;;;;;;;;2582587;23;20020;-93
2023/09/25 03:28:59;;;;;;;10.15;8.55;;;;;;;;;;2582644;23;20090;-92
2023/09/25 03:30:00;;;;;;;13.55;11.38;;;;;;;;;;2569918;23;20000;-93
2023/09/25 03:31:00;;;;;;;14.60;9.77;;;;;;;;;;2570347;23;20004;-93
2023/09/25 03:32:02;;;;;;;12.27;9.13;;;;;;;;;;2570397;23;20399;-93
2023/09/25 03:33:04;;;;;;;13.02;9.60;;;;;;;;;;2587074;23;20024;-93
2023/09/25 03:34:04;;;;;;;12.90;10.48;;;;;;;;;;2587282;22;20503;-92
2023/09/25 03:35:05;;;;;;;12.80;9.57;;;;;;;;;;2574727;23;20016;-91
2023/09/25 03:36:05;;;;;;;14.13;11.15;;;;;;;;;;2570296;23;20004;-91
2023/09/25 03:37:06;;;;;;;15.63;9.95;;;;;;;;;;2582911;23;20182;-92
2023/09/25 03:38:06;;;;;;;15.15;12.80;;;;;;;;;;2570116;23;20036;-92
2023/09/25 03:39:06;;;;;;;15.88;11.02;;;;;;;;;;2585307;23;20440;-92
2023/09/25 03:40:08;;;;;;;16.98;13.77;;;;;;;;;;2585926;22;20034;-92
2023/09/25 03:41:09;;;;;;;16.13;11.35;;;;;;;;;;2575304;23;20012;-92
2023/09/25 03:42:10;;;;;;;15.63;13.38;;;;;;;;;;2582488;23;20311;-93
2023/09/25 03:43:10;;;;;;;17.20;14.52;;;;;;;;;;2570276;23;20008;-93
2023/09/25 03:44:11;;;;;;;18.70;14.02;;;;;;;;;;2570218;23;20000;-93
2023/09/25 03:45:11;;;;;;;17.77;13.13;;;;;;;;;;2570189;23;20004;-94
2023/09/25 03:46:12;;;;;;;18.60;14.90;;;;;;;;;;2582460;23;20090;-92
2023/09/25 03:47:12;;;;;;;20.30;14.80;;;;;;;;;;2570212;23;20362;-92
2023/09/25 03:48:12;;;;;;;16.38;14.10;;;;;;;;;;2570197;23;20462;-92
2023/09/25 03:49:13;;;;;;;13.90;11.75;;;;;;;;;;2583450;23;20009;-92
2023/09/25 03:50:13;;;;;;;15.75;13.13;;;;;;;;;;2585861;23;20087;-90
2023/09/25 03:51:13;;;;;;;13.98;11.35;;;;;;;;;;2570221;23;20004;-92
2023/09/25 03:52:14;;;;;;;17.67;12.80;;;;;;;;;;2584658;23;20003;-93
2023/09/25 03:53:15;;;;;;;14.20;11.40;;;;;;;;;;2582670;23;20120;-92
2023/09/25 03:54:15;;;;;;;15.35;13.65;;;;;;;;;;2569829;23;20043;-93
2023/09/25 03:55:16;;;;;;;11.50;9.88;;;;;;;;;;2569975;23;20011;-94
2023/09/25 03:56:16;;;;;;;12.82;11.40;;;;;;;;;;2569875;23;20005;-94
2023/09/25 03:57:17;;;;;;;15.93;13.27;;;;;;;;;;2582465;23;20382;-93
2023/09/25 03:58:17;;;;;;;16.73;12.88;;;;;;;;;;2584327;23;20000;-92
2023/09/25 03:59:17;;;;;;;15.57;12.65;;;;;;;;;;2582376;23;20019;-92
2023/09/25 04:00:18;;;;;;;15.15;11.57;;;;;;;;;;2569890;23;20059;-92
2023/09/25 04:01:18;;;;;;;10.43;8.95;;;;;;;;;;2569715;23;20008;-93
2023/09/25 04:02:19;;;;;;;12.65;10.07;;;;;;;;;;2569709;23;20004;-93
2023/09/25 04:03:19;;;;;;;15.65;9.95;;;;;;;;;;2569787;23;20012;-93
2023/09/25 04:04:20;;;;;;;11.63;10.43;;;;;;;;;;2569909;23;20008;-93
2023/09/25 04:05:20;;;;;;;10.25;8.73;;;;;;;;;;2569735;23;20013;-93
2023/09/25 04:06:20;;;;;;;9.10;8.13;;;;;;;;;;2569846;23;20004;-90
2023/09/25 04:07:21;;;;;;;10.27;9.10;;;;;;;;;;2570083;23;20088;-93
2023/09/25 04:08:21;;;;;;;10.48;8.27;;;;;;;;;;2569738;23;20088;-90
2023/09/25 04:09:22;;;;;;;9.40;7.05;;;;;;;;;;2569919;23;20031;-93
2023/09/25 04:10:22;;;;;;;9.00;8.10;;;;;;;;;;2584114;23;20000;-93
2023/09/25 04:11:23;;;;;;;9.98;7.43;;;;;;;;;;2585039;22;20434;-93
2023/09/25 04:12:23;;;;;;;9.57;7.88;;;;;;;;;;2578029;23;20030;-93
2023/09/25 04:13:23;;;;;;;9.73;7.65;;;;;;;;;;2582459;23;20016;-93
2023/09/25 04:14:24;;;;;;;9.57;6.97;;;;;;;;;;2584099;23;20004;-93
2023/09/25 04:15:25;;;;;;;9.05;7.68;;;;;;;;;;2582431;23;20008;-93
2023/09/25 04:16:27;;;;;;;8.38;6.97;;;;;;;;;;2582053;23;20004;-93
2023/09/25 04:17:28;;;;;;;11.77;8.43;;;;;;;;;;2582343;23;20015;-94
2023/09/25 04:18:29;;;;;;;7.90;7.18;;;;;;;;;;2582310;23;20056;-92
2023/09/25 04:19:31;;;;;;;10.18;8.13;;;;;;;;;;2583677;23;20039;-92
2023/09/25 04:20:32;;;;;;;9.73;7.07;;;;;;;;;;2584266;22;20004;-92
2023/09/25 04:21:32;;;;;;;9.90;7.32;;;;;;;;;;2579801;23;20144;-92
2023/09/25 04:22:37;;;;;;;9.75;6.55;;;;;;;;;;2569875;23;20019;-92
2023/09/25 04:23:38;;;;;;;10.65;7.22;;;;;;;;;;2570694;23;20004;-92
2023/09/25 04:24:38;;;;;;;10.35;7.57;;;;;;;;;;2582993;23;20314;-91
2023/09/25 04:25:39;;;;;;;7.68;6.68;;;;;;;;;;2582253;23;20008;-93
2023/09/25 04:26:40;;;;;;;8.40;7.50;;;;;;;;;;2569930;23;20346;-92
2023/09/25 04:27:40;;;;;;;11.25;7.13;;;;;;;;;;2582924;23;20143;-92
2023/09/25 04:28:40;;;;;;;8.00;7.10;;;;;;;;;;2582426;23;20130;-94
2023/09/25 04:29:42;;;;;;;8.95;6.88;;;;;;;;;;2569917;23;20005;-92
2023/09/25 04:30:43;;;;;;;10.00;7.97;;;;;;;;;;2582711;23;20004;-93
2023/09/25 04:31:49;;;;;;;9.43;7.25;;;;;;;;;;2582245;23;20094;-92
2023/09/25 04:32:54;;;;;;;9.60;7.55;;;;;;;;;;2570793;23;20005;-92
2023/09/25 04:33:55;;;;;;;7.53;6.47;;;;;;;;;;2570801;23;20003;-92
2023/09/25 04:34:55;;;;;;;9.60;7.15;;;;;;;;;;2595339;23;19988;-92
2023/09/25 04:35:58;;;;;;;11.23;7.50;;;;;;;;;;2592159;23;20040;-93
2023/09/25 04:36:59;;;;;;;9.95;6.80;;;;;;;;;;2580189;23;20005;-93
2023/09/25 04:37:59;;;;;;;7.72;6.85;;;;;;;;;;2580122;23;19996;-92
2023/09/25 04:39:00;;;;;;;8.80;7.90;;;;;;;;;;2576324;23;20023;-92
2023/09/25 04:40:00;;;;;;;7.90;6.90;;;;;;;;;;2590328;23;20113;-92
2023/09/25 04:41:01;;;;;;;8.95;6.18;;;;;;;;;;2591482;22;20007;-92
2023/09/25 04:42:01;;;;;;;10.32;7.82;;;;;;;;;;2592041;22;20022;-92
2023/09/25 04:43:03;;;;;;;9.43;7.78;;;;;;;;;;2591914;22;20001;-92
2023/09/25 04:44:05;;;;;;;10.50;7.13;;;;;;;;;;2579334;23;19997;-93
2023/09/25 04:45:06;;;;;;;8.07;7.00;;;;;;;;;;2575553;23;20012;-92
2023/09/25 04:46:06;;;;;;;10.00;9.00;;;;;;;;;;2591123;23;19996;-93
2023/09/25 04:47:07;;;;;;;10.65;7.43;;;;;;;;;;2589313;23;20127;-93
2023/09/25 04:48:09;;;;;;;11.38;8.70;;;;;;;;;;2579460;23;20478;-93
2023/09/25 04:49:12;;;;;;;11.52;8.52;;;;;;;;;;2581955;23;20052;-93
2023/09/25 04:50:13;;;;;;;10.90;9.48;;;;;;;;;;2582442;23;20000;-92
2023/09/25 04:51:17;;;;;;;12.57;9.27;;;;;;;;;;2582068;23;20001;-91
2023/09/25 04:52:17;;;;;;;12.70;10.55;;;;;;;;;;2582491;23;20059;-92
2023/09/25 04:53:24;;;;;;;15.23;9.00;;;;;;;;;;2581333;23;20007;-92
2023/09/25 04:54:24;;;;;;;11.30;10.00;;;;;;;;;;2594693;22;19997;-94
2023/09/25 04:55:25;;;;;;;11.55;8.10;;;;;;;;;;2581875;23;20040;-94
2023/09/25 04:56:27;;;;;;;12.07;10.88;;;;;;;;;;2581068;23;20012;-93
2023/09/25 04:57:27;;;;;;;14.93;10.18;;;;;;;;;;2577305;23;20442;-93
2023/09/25 04:58:27;;;;;;;12.60;10.30;;;;;;;;;;2570379;23;20039;-93
2023/09/25 04:59:28;;;;;;;13.15;9.77;;;;;;;;;;2570214;23;20008;-93
2023/09/25 05:00:28;;;;;;;11.50;9.07;;;;;;;;;;2582761;23;20398;-95
2023/09/25 05:01:30;;;;;;;12.32;10.68;;;;;;;;;;2582657;23;20385;-93
2023/09/25 05:02:30;;;;;;;14.25;10.68;;;;;;;;;;2582703;22;20035;-93
2023/09/25 05:03:30;;;;;;;14.38;10.80;;;;;;;;;;2582594;23;20012;-94
2023/09/25 05:04:31;;;;;;;13.73;10.50;;;;;;;;;;2570162;23;20406;-94
2023/09/25 05:05:32;;;;;;;12.27;9.70;;;;;;;;;;2583724;23;20484;-93
2023/09/25 05:06:33;;;;;;;12.57;10.15;;;;;;;;;;2582435;23;20051;-94
2023/09/25 05:07:33;;;;;;;14.73;10.20;;;;;;;;;;2570103;23;20426;-94
2023/09/25 05:08:34;;;;;;;12.23;9.32;;;;;;;;;;2582455;23;20027;-95
2023/09/25 05:09:34;;;;;;;12.95;9.55;;;;;;;;;;2582369;23;20481;-95
2023/09/25 05:10:35;;;;;;;11.20;10.10;;;;;;;;;;2582399;23;20039;-94
2023/09/25 05:11:35;;;;;;;13.77;10.35;;;;;;;;;;2582680;23;20081;-94
2023/09/25 05:12:37;;;;;;;10.25;8.32;;;;;;;;;;2569887;23;20525;-93
2023/09/25 05:13:38;;;;;;;9.52;7.90;;;;;;;;;;2570257;23;20019;-94
2023/09/25 05:14:39;;;;;;;11.57;8.00;;;;;;;;;;2569633;23;20409;-94
2023/09/25 05:15:39;;;;;;;9.38;8.13;;;;;;;;;;2569995;23;20181;-94
2023/09/25 05:16:40;;;;;;;10.93;7.68;;;;;;;;;;2570077;23;20004;-93
2023/09/25 05:17:41;;;;;;;9.07;8.02;;;;;;;;;;2582342;23;20004;-93
2023/09/25 05:18:43;;;;;;;8.75;7.82;;;;;;;;;;2582434;23;20004;-94
2023/09/25 05:19:43;;;;;;;8.88;7.88;;;;;;;;;;2582847;23;20027;-94
2023/09/25 05:20:43;;;;;;;11.40;7.78;;;;;;;;;;2582327;23;20031;-94
2023/09/25 05:21:44;;;;;;;10.23;8.15;;;;;;;;;;2569965;23;20035;-94
2023/09/25 05:22:52;;;;;;;13.07;8.10;;;;;;;;;;2569897;23;20016;-94
2023/09/25 05:23:52;;;;;;;7.90;6.88;;;;;;;;;;2571263;23;20133;-95
2023/09/25 05:24:53;;;;;;;11.45;8.32;;;;;;;;;;2582439;23;20019;-94
2023/09/25 05:25:58;;;;;;;9.15;7.55;;;;;;;;;;2585922;23;19995;-94
2023/09/25 05:26:59;;;;;;;13.63;8.65;;;;;;;;;;2582582;23;20023;-93
2023/09/25 05:27:59;;;;;;;13.65;8.68;;;;;;;;;;2532285;23;20000;-94
2023/09/25 05:29:00;;;;;;;9.38;7.95;;;;;;;;;;2141319;23;10000551;-94
2023/09/25 05:30:02;;;;;;;12.37;8.27;;;;;;;;;;2141807;23;10001030;-93
2023/09/25 05:31:02;;;;;;;9.45;8.55;;;;;;;;;;2569929;23;20051;-93
2023/09/25 05:32:04;;;;;;;8.65;7.35;;;;;;;;;;2565667;23;20001;-94
2023/09/25 05:33:04;;;;;;;11.15;8.75;;;;;;;;;;2579847;23;20091;-92
2023/09/25 05:34:05;;;;;;;9.00;7.13;;;;;;;;;;2586127;23;20019;-93
2023/09/25 05:35:06;;;;;;;10.38;8.55;;;;;;;;;;2584021;23;20434;-93
2023/09/25 05:36:07;;;;;;;8.60;7.68;;;;;;;;;;2572718;23;20004;-94
2023/09/25 05:37:07;;;;;;;10.27;8.43;;;;;;;;;;2570205;23;20028;-94
2023/09/25 05:38:08;;;;;;;12.52;8.82;;;;;;;;;;2582310;23;20008;-94
2023/09/25 05:39:08;;;;;;;13.48;10.15;;;;;;;;;;2582028;23;20457;-94
2023/09/25 05:40:10;;;;;;;13.23;10.63;;;;;;;;;;2582349;23;20004;-93
2023/09/25 05:41:12;;;;;;;12.00;9.60;;;;;;;;;;2582354;23;20040;-95
2023/09/25 05:42:12;;;;;;;13.15;10.00;;;;;;;;;;2582294;23;20019;-94
2023/09/25 05:43:12;;;;;;;13.20;9.43;;;;;;;;;;2569747;23;20130;-94
2023/09/25 05:44:14;;;;;;;11.63;10.27;;;;;;;;;;2569955;23;20028;-94
2023/09/25 05:45:16;;;;;;;15.88;10.48;;;;;;;;;;2569781;23;20007;-94
2023/09/25 05:46:16;;;;;;;14.18;9.45;;;;;;;;;;2584096;23;20118;-94
2023/09/25 05:47:17;;;;;;;12.15;10.80;;;;;;;;;;2582353;23;20000;-93
2023/09/25 05:48:18;;;;;;;9.65;8.38;;;;;;;;;;2569853;23;20087;-94
2023/09/25 05:49:18;;;;;;;9.45;8.55;;;;;;;;;;2569786;23;20000;-94
2023/09/25 05:50:19;;;;;;;10.30;9.15;;;;;;;;;;2569547;23;20015;-93
2023/09/25 05:51:19;;;;;;;12.73;9.88;;;;;;;;;;2582279;23;20059;-94
2023/09/25 05:52:20;;;;;;;12.00;10.80;;;;;;;;;;2569692;23;20029;-94
2023/09/25 05:53:22;;;;;;;12.07;9.27;;;;;;;;;;2569639;23;20008;-94
2023/09/25 05:54:22;;;;;;;10.77;9.30;;;;;;;;;;2569931;23;20063;-94
2023/09/25 05:55:23;;;;;;;12.70;8.05;;;;;;;;;;2569729;23;20414;-94
2023/09/25 05:56:23;;;;;;;11.82;10.60;;;;;;;;;;2569758;23;20095;-94
2023/09/25 05:57:24;;;;;;;14.25;9.73;;;;;;;;;;2583763;23;20030;-93
2023/09/25 05:58:24;;;;;;;13.15;11.05;;;;;;;;;;2582327;23;20004;-93
2023/09/25 05:59:26;;;;;;;15.43;12.68;;;;;;;;;;2569595;23;20043;-93
2023/09/25 06:00:26;;;;;;;13.60;12.20;;;;;;;;;;2569568;23;20016;-93
2023/09/25 06:01:27;;;;;;;14.80;11.43;;;;;;;;;;2582279;23;20350;-94